createdAt,value
2022-12-14T00:01:36.087Z,-4.63
2022-12-14T00:04:02.904Z,-4.66
2022-12-14T00:06:32.416Z,-4.64
2022-12-14T00:09:01.806Z,-4.68
2022-12-14T00:11:29.042Z,-4.71
2022-12-14T00:14:01.295Z,-4.70
2022-12-14T00:16:31.103Z,-4.72
2022-12-14T00:19:00.118Z,-4.72
2022-12-14T00:21:28.541Z,-4.74
2022-12-14T00:23:57.486Z,-4.75
2022-12-14T00:26:27.945Z,-4.76
2022-12-14T00:28:55.910Z,-4.74
2022-12-14T00:31:24.233Z,-4.76
2022-12-14T00:33:51.959Z,-4.80
2022-12-14T00:36:19.969Z,-4.78
2022-12-14T00:38:46.851Z,-4.81
2022-12-14T00:41:14.025Z,-4.80
2022-12-14T00:43:41.088Z,-4.79
2022-12-14T00:46:08.746Z,-4.80
2022-12-14T00:48:35.949Z,-4.83
2022-12-14T00:51:04.174Z,-4.83
2022-12-14T00:53:31.290Z,-4.81
2022-12-14T00:56:05.567Z,-4.84
2022-12-14T00:58:32.441Z,-4.85
2022-12-14T01:01:06.016Z,-4.86
2022-12-14T01:03:33.832Z,-4.84
2022-12-14T01:06:01.816Z,-4.87
2022-12-14T01:08:36.003Z,-4.88
2022-12-14T01:11:08.064Z,-4.87
2022-12-14T01:13:36.614Z,-4.85
2022-12-14T01:16:04.516Z,-4.87
2022-12-14T01:18:34.677Z,-4.88
2022-12-14T01:21:13.761Z,-4.88
2022-12-14T01:23:40.568Z,-4.86
2022-12-14T01:26:07.822Z,-4.85
2022-12-14T01:28:35.210Z,-4.85
2022-12-14T01:31:14.757Z,-4.84
2022-12-14T01:33:42.057Z,-4.84
2022-12-14T01:36:12.015Z,-4.83
2022-12-14T01:38:39.121Z,-4.80
2022-12-14T01:41:07.957Z,-4.78
2022-12-14T01:43:55.533Z,-4.76
2022-12-14T01:46:26.511Z,-4.75
2022-12-14T01:48:59.292Z,-4.74
2022-12-14T01:51:27.382Z,-4.74
2022-12-14T01:53:56.005Z,-4.72
2022-12-14T01:56:22.954Z,-4.72
2022-12-14T01:58:50.701Z,-4.73
2022-12-14T02:01:17.916Z,-4.68
2022-12-14T02:03:50.475Z,-4.71
2022-12-14T02:06:22.703Z,-4.74
2022-12-14T02:08:52.495Z,-4.76
2022-12-14T02:11:30.105Z,-4.78
2022-12-14T02:13:56.913Z,-4.79
2022-12-14T02:16:24.155Z,-4.77
2022-12-14T02:18:50.974Z,-4.78
2022-12-14T02:21:29.950Z,-4.75
2022-12-14T02:24:28.911Z,-4.76
2022-12-14T02:27:23.282Z,-4.76
2022-12-14T02:29:52.873Z,-4.73
2022-12-14T02:32:34.859Z,-4.70
2022-12-14T02:35:15.477Z,-4.68
2022-12-14T02:38:20.152Z,-4.67
2022-12-14T02:41:18.961Z,-4.63
2022-12-14T02:44:07.814Z,-4.63
2022-12-14T02:46:59.432Z,-4.67
2022-12-14T02:50:00.461Z,-4.65
2022-12-14T02:52:48.977Z,-4.67
2022-12-14T02:55:34.276Z,-4.67
2022-12-14T02:58:03.601Z,-4.69
2022-12-14T03:00:34.579Z,-4.67
2022-12-14T03:03:02.656Z,-4.67
2022-12-14T03:05:30.476Z,-4.66
2022-12-14T03:08:16.885Z,-4.65
2022-12-14T03:10:57.409Z,-4.67
2022-12-14T03:13:43.585Z,-4.67
2022-12-14T03:16:25.321Z,-4.70
2022-12-14T03:19:00.647Z,-4.70
2022-12-14T03:21:36.993Z,-4.71
2022-12-14T03:24:12.751Z,-4.72
2022-12-14T03:26:47.674Z,-4.74
2022-12-14T03:29:21.816Z,-4.77
2022-12-14T03:31:57.253Z,-4.83
2022-12-14T03:34:34.191Z,-4.92
2022-12-14T03:37:14.890Z,-5.06
2022-12-14T03:39:43.484Z,-5.19
2022-12-14T03:42:10.407Z,-5.38
2022-12-14T03:44:48.886Z,-5.55
2022-12-14T03:47:29.042Z,-5.73
2022-12-14T03:50:01.521Z,-5.90
2022-12-14T03:53:01.754Z,-6.09
2022-12-14T03:55:48.875Z,-6.34
2022-12-14T03:58:37.239Z,-6.53
2022-12-14T04:01:13.450Z,-6.69
2022-12-14T04:04:13.600Z,-6.93
2022-12-14T04:06:52.325Z,-7.16
2022-12-14T04:09:28.882Z,-7.29
2022-12-14T04:12:25.383Z,-7.45
2022-12-14T04:15:15.775Z,-7.59
2022-12-14T04:18:03.614Z,-7.85
2022-12-14T04:20:43.109Z,-8.11
2022-12-14T04:23:42.233Z,-8.28
2022-12-14T04:26:15.415Z,-8.42
2022-12-14T04:29:10.738Z,-8.51
2022-12-14T04:31:41.988Z,-8.59
2022-12-14T04:34:14.006Z,-8.68
2022-12-14T04:36:43.298Z,-8.73
2022-12-14T04:39:17.128Z,-8.84
2022-12-14T04:41:49.580Z,-9.00
2022-12-14T04:44:28.151Z,-9.16
2022-12-14T04:46:58.404Z,-9.25
2022-12-14T04:49:32.983Z,-9.35
2022-12-14T04:52:11.358Z,-9.45
2022-12-14T04:54:41.490Z,-9.50
2022-12-14T04:57:29.477Z,-9.54
2022-12-14T04:59:57.285Z,-9.58
2022-12-14T05:02:38.993Z,-9.60
2022-12-14T05:05:20.495Z,-9.69
2022-12-14T05:08:09.846Z,-9.81
2022-12-14T05:10:44.041Z,-9.92
2022-12-14T05:13:20.251Z,-9.99
2022-12-14T05:15:51.251Z,-10.07
2022-12-14T05:18:18.864Z,-10.10
2022-12-14T05:20:48.909Z,-10.13
2022-12-14T05:23:16.736Z,-10.19
2022-12-14T05:25:43.810Z,-10.22
2022-12-14T05:28:11.792Z,-10.31
2022-12-14T05:30:39.066Z,-10.29
2022-12-14T05:33:06.445Z,-10.39
2022-12-14T05:35:33.301Z,-10.44
2022-12-14T05:38:00.360Z,-10.47
2022-12-14T05:40:27.236Z,-10.52
2022-12-14T05:43:04.783Z,-10.58
2022-12-14T05:45:31.824Z,-10.61
2022-12-14T05:47:59.148Z,-10.65
2022-12-14T05:50:26.013Z,-10.70
2022-12-14T05:52:53.378Z,-10.80
2022-12-14T05:55:20.169Z,-10.86
2022-12-14T05:57:47.218Z,-10.93
2022-12-14T06:00:14.655Z,-10.95
2022-12-14T06:02:41.783Z,-10.96
2022-12-14T06:05:09.084Z,-11.01
2022-12-14T06:07:36.236Z,-10.99
2022-12-14T06:10:03.714Z,-11.01
2022-12-14T06:12:30.838Z,-11.07
2022-12-14T06:14:57.626Z,-11.11
2022-12-14T06:17:24.704Z,-11.15
2022-12-14T06:19:51.967Z,-11.18
2022-12-14T06:22:19.236Z,-11.22
2022-12-14T06:24:46.025Z,-11.26
2022-12-14T06:27:13.137Z,-11.32
2022-12-14T06:29:39.921Z,-11.31
2022-12-14T06:32:07.073Z,-11.32
2022-12-14T06:34:38.446Z,-11.32
2022-12-14T06:37:07.006Z,-11.31
2022-12-14T06:39:33.814Z,-11.27
2022-12-14T06:42:00.894Z,-11.26
2022-12-14T06:44:27.801Z,-11.20
2022-12-14T06:46:55.855Z,-11.16
2022-12-14T06:49:22.908Z,-11.10
2022-12-14T06:51:50.220Z,-11.03
2022-12-14T06:54:17.938Z,-10.90
2022-12-14T06:56:46.620Z,-10.81
2022-12-14T06:59:14.011Z,-10.69
2022-12-14T07:01:41.639Z,-10.55
2022-12-14T07:04:09.448Z,-10.47
2022-12-14T07:06:39.343Z,-10.36
2022-12-14T07:09:09.323Z,-10.26
2022-12-14T07:11:36.633Z,-10.13
2022-12-14T07:14:06.268Z,-10.02
2022-12-14T07:16:34.928Z,-9.89
2022-12-14T07:19:01.790Z,-9.73
2022-12-14T07:21:29.509Z,-9.61
2022-12-14T07:23:56.548Z,-9.54
2022-12-14T07:26:26.654Z,-9.38
2022-12-14T07:28:55.315Z,-9.26
2022-12-14T07:31:25.089Z,-9.10
2022-12-14T07:33:56.015Z,-8.86
2022-12-14T07:36:24.643Z,-8.71
2022-12-14T07:38:52.098Z,-8.64
2022-12-14T07:41:29.558Z,-8.62
2022-12-14T07:43:57.020Z,-8.51
2022-12-14T07:46:26.865Z,-8.46
2022-12-14T07:48:56.444Z,-8.46
2022-12-14T07:51:33.418Z,-8.45
2022-12-14T07:54:01.899Z,-8.36
2022-12-14T07:56:29.953Z,-8.25
2022-12-14T07:58:58.318Z,-8.11
2022-12-14T08:01:31.283Z,-7.88
2022-12-14T08:04:00.009Z,-7.70
2022-12-14T08:06:30.377Z,-7.49
2022-12-14T08:08:58.281Z,-7.27
2022-12-14T08:11:25.721Z,-7.11
2022-12-14T08:13:57.187Z,-6.92
2022-12-14T08:16:25.632Z,-6.65
2022-12-14T08:18:54.071Z,-6.35
2022-12-14T08:21:22.547Z,-6.05
2022-12-14T08:23:50.913Z,-5.67
2022-12-14T08:26:19.115Z,-5.29
2022-12-14T08:28:47.562Z,-5.05
2022-12-14T08:31:15.928Z,-4.96
2022-12-14T08:33:43.868Z,-4.89
2022-12-14T08:36:25.477Z,-4.83
2022-12-14T08:39:00.423Z,-4.77
2022-12-14T08:41:28.905Z,-4.71
2022-12-14T08:43:58.174Z,-4.65
2022-12-14T08:46:27.410Z,-4.60
2022-12-14T08:48:55.009Z,-4.54
2022-12-14T08:51:23.412Z,-4.43
2022-12-14T08:53:50.462Z,-4.29
2022-12-14T08:56:19.788Z,-4.13
2022-12-14T08:58:46.814Z,-4.00
2022-12-14T09:01:16.742Z,-3.83
2022-12-14T09:03:45.332Z,-3.73
2022-12-14T09:06:24.476Z,-3.59
2022-12-14T09:08:51.255Z,-3.41
2022-12-14T09:11:21.687Z,-3.20
2022-12-14T09:13:48.689Z,-2.99
2022-12-14T09:16:21.784Z,-2.74
2022-12-14T09:18:49.523Z,-2.49
2022-12-14T09:21:18.098Z,-2.47
2022-12-14T09:23:45.663Z,-2.40
2022-12-14T09:26:18.778Z,-2.31
2022-12-14T09:28:50.683Z,-2.18
2022-12-14T09:31:20.077Z,-2.20
2022-12-14T09:33:46.917Z,-2.23
2022-12-14T09:36:19.879Z,-2.17
2022-12-14T09:38:51.579Z,-2.10
2022-12-14T09:41:35.050Z,-1.99
2022-12-14T09:44:24.970Z,-2.03
2022-12-14T09:47:01.354Z,-1.89
2022-12-14T09:49:34.618Z,-1.71
2022-12-14T09:52:05.422Z,-1.53
2022-12-14T09:54:38.732Z,-1.38
2022-12-14T09:57:18.934Z,-1.18
2022-12-14T09:59:45.696Z,-0.99
2022-12-14T10:02:34.396Z,-0.82
2022-12-14T10:05:17.146Z,-0.63
2022-12-14T10:08:03.002Z,-0.39
2022-12-14T10:10:44.067Z,-0.18
2022-12-14T10:13:49.765Z,0.09
2022-12-14T10:16:27.749Z,0.36
2022-12-14T10:19:12.506Z,0.51
2022-12-14T10:22:16.525Z,0.67
2022-12-14T10:24:51.070Z,0.57
2022-12-14T10:27:22.893Z,0.38
2022-12-14T10:29:59.765Z,0.06
2022-12-14T10:32:37.774Z,0.01
2022-12-14T10:35:56.988Z,0.08
2022-12-14T10:38:56.740Z,0.18
2022-12-14T10:41:23.813Z,0.29
2022-12-14T10:44:03.487Z,0.30
2022-12-14T10:46:58.056Z,0.25
2022-12-14T10:49:32.610Z,0.19
2022-12-14T10:52:12.400Z,0.10
2022-12-14T10:54:46.669Z,-0.01
2022-12-14T10:57:27.228Z,-0.06
2022-12-14T11:00:09.826Z,-0.13
2022-12-14T11:02:42.710Z,-0.17
2022-12-14T11:05:36.608Z,-0.22
2022-12-14T11:08:09.011Z,-0.35
2022-12-14T11:10:39.528Z,-0.42
2022-12-14T11:13:12.993Z,-0.46
2022-12-14T11:15:45.717Z,-0.53
2022-12-14T11:18:15.667Z,-0.54
2022-12-14T11:20:56.445Z,-0.54
2022-12-14T11:23:35.934Z,-0.46
2022-12-14T11:26:07.065Z,-0.40
2022-12-14T11:28:41.513Z,-0.44
2022-12-14T11:31:13.209Z,-0.50
2022-12-14T11:33:43.449Z,-0.61
2022-12-14T11:36:24.037Z,-0.71
2022-12-14T11:39:01.816Z,-0.72
2022-12-14T11:41:40.870Z,-0.75
2022-12-14T11:44:16.767Z,-0.89
2022-12-14T11:46:58.902Z,-1.08
2022-12-14T11:49:35.347Z,-1.22
2022-12-14T11:52:09.609Z,-1.30
2022-12-14T11:54:39.465Z,-1.33
2022-12-14T11:57:12.337Z,-1.34
2022-12-14T11:59:45.813Z,-1.32
2022-12-14T12:02:22.074Z,-1.26
2022-12-14T12:04:57.056Z,-1.22
2022-12-14T12:07:29.724Z,-1.21
2022-12-14T12:10:02.260Z,-1.22
2022-12-14T12:12:29.130Z,-1.22
2022-12-14T12:14:57.042Z,-1.19
2022-12-14T12:17:39.402Z,-1.24
2022-12-14T12:20:19.899Z,-1.34
2022-12-14T12:22:51.247Z,-1.49
2022-12-14T12:25:27.598Z,-1.70
2022-12-14T12:28:28.360Z,-1.94
2022-12-14T12:31:07.492Z,-2.10
2022-12-14T12:33:46.716Z,-2.29
2022-12-14T12:36:23.548Z,-2.51
2022-12-14T12:39:07.927Z,-2.61
2022-12-14T12:41:47.461Z,-2.70
2022-12-14T12:44:49.787Z,-2.79
2022-12-14T12:47:29.889Z,-2.82
2022-12-14T12:50:06.506Z,-2.89
2022-12-14T12:52:50.173Z,-2.94
2022-12-14T12:55:19.815Z,-2.98
2022-12-14T12:57:51.052Z,-3.07
2022-12-14T13:00:25.387Z,-3.16
2022-12-14T13:03:02.348Z,-3.23
2022-12-14T13:05:47.668Z,-3.27
2022-12-14T13:08:21.717Z,-3.32
2022-12-14T13:13:44.221Z,-3.36
2022-12-14T13:16:20.406Z,-3.44
2022-12-14T13:19:04.916Z,-3.45
2022-12-14T13:21:49.693Z,-3.46
2022-12-14T13:24:20.103Z,-3.46
2022-12-14T13:27:25.544Z,-3.47
2022-12-14T13:30:00.384Z,-3.52
2022-12-14T13:32:48.125Z,-3.53
2022-12-14T13:35:46.482Z,-3.51
2022-12-14T13:38:33.632Z,-3.49
2022-12-14T13:41:27.162Z,-3.51
2022-12-14T13:44:31.289Z,-3.53
2022-12-14T13:47:06.528Z,-3.51
2022-12-14T13:49:33.673Z,-3.49
2022-12-14T13:52:01.229Z,-3.46
2022-12-14T13:54:37.578Z,-3.43
2022-12-14T13:57:09.898Z,-3.43
2022-12-14T13:59:48.527Z,-3.41
2022-12-14T14:02:28.003Z,-3.48
2022-12-14T14:05:18.745Z,-3.54
2022-12-14T14:07:57.910Z,-3.63
2022-12-14T14:10:29.569Z,-3.71
2022-12-14T14:12:56.680Z,-3.77
2022-12-14T14:16:26.371Z,-3.84
2022-12-14T14:18:52.236Z,-3.86
2022-12-14T14:21:20.162Z,-3.86
2022-12-14T14:24:01.410Z,-3.87
2022-12-14T14:26:29.824Z,-3.87
2022-12-14T14:29:10.889Z,-3.86
2022-12-14T14:31:51.797Z,-3.85
2022-12-14T14:34:41.913Z,-3.84
2022-12-14T14:37:20.683Z,-3.83
2022-12-14T14:40:33.262Z,-3.88
2022-12-14T14:43:08.861Z,-3.86
2022-12-14T14:45:58.279Z,-3.86
2022-12-14T14:48:30.629Z,-3.84
2022-12-14T14:51:14.592Z,-3.86
2022-12-14T14:53:41.846Z,-3.84
2022-12-14T14:56:30.894Z,-3.86
2022-12-14T14:59:16.041Z,-3.89
2022-12-14T15:01:50.833Z,-3.89
2022-12-14T15:04:24.761Z,-3.91
2022-12-14T15:06:58.076Z,-3.92
2022-12-14T15:09:33.764Z,-3.92
2022-12-14T15:12:08.007Z,-3.95
2022-12-14T15:14:48.508Z,-3.99
2022-12-14T15:17:18.844Z,-4.01
2022-12-14T15:19:49.851Z,-3.99
2022-12-14T15:22:22.771Z,-3.94
2022-12-14T15:24:53.095Z,-3.93
2022-12-14T15:27:22.768Z,-3.87
2022-12-14T15:29:51.027Z,-3.73
2022-12-14T15:32:22.842Z,-3.65
2022-12-14T15:34:56.087Z,-3.60
2022-12-14T15:37:53.520Z,-3.51
2022-12-14T15:40:30.545Z,-3.45
2022-12-14T15:43:15.237Z,-3.42
2022-12-14T15:45:44.590Z,-3.42
2022-12-14T15:48:21.913Z,-3.43
2022-12-14T15:50:54.423Z,-3.45
2022-12-14T15:53:52.877Z,-3.46
2022-12-14T15:56:30.063Z,-3.45
2022-12-14T15:58:59.973Z,-3.51
2022-12-14T16:01:38.028Z,-3.56
2022-12-14T16:04:09.899Z,-3.60
2022-12-14T16:06:42.090Z,-3.63
2022-12-14T16:09:26.566Z,-3.63
2022-12-14T16:12:04.109Z,-3.65
2022-12-14T16:14:44.261Z,-3.68
2022-12-14T16:17:33.874Z,-3.67
2022-12-14T16:20:09.036Z,-3.68
2022-12-14T16:22:39.983Z,-3.69
2022-12-14T16:25:10.000Z,-3.69
2022-12-14T16:27:42.756Z,-3.71
2022-12-14T16:30:19.222Z,-3.72
2022-12-14T16:32:50.114Z,-3.72
2022-12-14T16:35:19.400Z,-3.73
2022-12-14T16:37:51.228Z,-3.74
2022-12-14T16:40:35.061Z,-3.76
2022-12-14T16:43:04.593Z,-3.73
2022-12-14T16:45:45.271Z,-3.76
2022-12-14T16:48:22.194Z,-3.75
2022-12-14T16:51:02.902Z,-3.72
2022-12-14T16:53:34.991Z,-3.71
2022-12-14T16:56:04.453Z,-3.71
2022-12-14T16:58:31.264Z,-3.73
2022-12-14T17:01:06.155Z,-3.73
2022-12-14T17:03:34.124Z,-3.73
2022-12-14T17:06:07.070Z,-3.75
2022-12-14T17:08:34.654Z,-3.72
2022-12-14T17:11:02.411Z,-3.69
2022-12-14T17:13:29.855Z,-3.64
2022-12-14T17:16:06.122Z,-3.68
2022-12-14T17:18:37.737Z,-3.63
2022-12-14T17:21:06.141Z,-3.65
2022-12-14T17:23:35.593Z,-3.64
2022-12-14T17:26:02.741Z,-3.65
2022-12-14T17:28:31.599Z,-3.65
2022-12-14T17:30:59.803Z,-3.60
2022-12-14T17:33:28.486Z,-3.61
2022-12-14T17:35:56.024Z,-3.59
2022-12-14T17:38:23.276Z,-3.58
2022-12-14T17:40:51.765Z,-3.55
2022-12-14T17:43:21.057Z,-3.53
2022-12-14T17:45:48.264Z,-3.53
2022-12-14T17:48:16.474Z,-3.49
2022-12-14T17:50:47.711Z,-3.50
2022-12-14T17:53:16.779Z,-3.56
2022-12-14T17:55:44.208Z,-3.55
2022-12-14T17:58:11.374Z,-3.55
2022-12-14T18:00:58.619Z,-3.58
2022-12-14T18:03:26.277Z,-3.55
2022-12-14T18:05:53.609Z,-3.56
2022-12-14T18:08:22.238Z,-3.57
2022-12-14T18:11:15.216Z,-3.59
2022-12-14T18:13:43.069Z,-3.60
2022-12-14T18:16:15.925Z,-3.58
2022-12-14T18:18:43.406Z,-3.59
2022-12-14T18:21:22.424Z,-3.60
2022-12-14T18:23:50.565Z,-3.61
2022-12-14T18:26:22.319Z,-3.64
2022-12-14T18:28:50.729Z,-3.65
2022-12-14T18:31:24.007Z,-3.65
2022-12-14T18:33:50.960Z,-3.67
2022-12-14T18:36:21.510Z,-3.64
2022-12-14T18:38:51.971Z,-3.63
2022-12-14T18:41:23.185Z,-3.62
2022-12-14T18:43:50.577Z,-3.61
2022-12-14T18:46:18.116Z,-3.60
2022-12-14T18:48:45.188Z,-3.59
2022-12-14T18:51:15.545Z,-3.58
2022-12-14T18:53:43.255Z,-3.55
2022-12-14T18:56:12.400Z,-3.52
2022-12-14T18:58:42.070Z,-3.45
2022-12-14T19:01:15.092Z,-3.42
2022-12-14T19:03:43.551Z,-3.42
2022-12-14T19:09:09.280Z,-3.43
2022-12-14T19:11:41.852Z,-3.41
2022-12-14T19:14:09.702Z,-3.40
2022-12-14T19:16:37.068Z,-3.40
2022-12-14T19:19:03.940Z,-3.41
2022-12-14T19:21:31.648Z,-3.38
2022-12-14T19:24:01.825Z,-3.37
2022-12-14T19:26:29.339Z,-3.33
2022-12-14T19:28:56.910Z,-3.33
2022-12-14T19:31:24.014Z,-3.32
2022-12-14T19:33:50.907Z,-3.32
2022-12-14T19:36:18.022Z,-3.34
2022-12-14T19:38:45.076Z,-3.34
2022-12-14T19:41:20.168Z,-3.36
2022-12-14T19:43:47.570Z,-3.37
2022-12-14T19:46:16.439Z,-3.38
2022-12-14T19:48:44.459Z,-3.39
2022-12-14T19:51:13.119Z,-3.41
2022-12-14T19:53:42.648Z,-3.46
2022-12-14T19:56:10.949Z,-3.50
2022-12-14T19:58:37.732Z,-3.53
2022-12-14T20:01:09.086Z,-3.53
2022-12-14T20:03:37.405Z,-3.55
2022-12-14T20:06:06.157Z,-3.60
2022-12-14T20:08:34.183Z,-3.57
2022-12-14T20:11:06.327Z,-3.56
2022-12-14T20:13:33.909Z,-3.56
2022-12-14T20:16:02.181Z,-3.56
2022-12-14T20:18:30.765Z,-3.55
2022-12-14T20:21:05.631Z,-3.55
2022-12-14T20:23:35.371Z,-3.56
2022-12-14T20:26:04.530Z,-3.55
2022-12-14T20:28:31.676Z,-3.53
2022-12-14T20:30:58.958Z,-3.50
2022-12-14T20:33:30.117Z,-3.52
2022-12-14T20:35:58.220Z,-3.50
2022-12-14T20:38:25.573Z,-3.53
2022-12-14T20:40:52.896Z,-3.48
2022-12-14T20:43:19.939Z,-3.53
2022-12-14T20:45:47.186Z,-3.56
2022-12-14T20:48:14.011Z,-3.58
2022-12-14T20:50:43.126Z,-3.61
2022-12-14T20:53:09.980Z,-3.68
2022-12-14T20:55:37.358Z,-3.71
2022-12-14T20:58:04.163Z,-3.70
2022-12-14T21:00:31.404Z,-3.69
2022-12-14T21:02:58.467Z,-3.68
2022-12-14T21:05:25.852Z,-3.70
2022-12-14T21:07:52.637Z,-3.71
2022-12-14T21:10:19.802Z,-3.71
2022-12-14T21:12:49.865Z,-3.72
2022-12-14T21:15:17.062Z,-3.76
2022-12-14T21:17:43.804Z,-3.74
2022-12-14T21:20:12.772Z,-3.79
2022-12-14T21:22:39.591Z,-3.79
2022-12-14T21:25:07.746Z,-3.78
2022-12-14T21:27:38.481Z,-3.78
2022-12-14T21:30:08.438Z,-3.82
2022-12-14T21:32:37.243Z,-3.81
2022-12-14T21:35:04.909Z,-3.80
2022-12-14T21:37:31.712Z,-3.81
2022-12-14T21:39:58.818Z,-3.78
2022-12-14T21:42:26.608Z,-3.77
2022-12-14T21:44:54.370Z,-3.76
2022-12-14T21:47:24.364Z,-3.76
2022-12-14T21:49:51.463Z,-3.79
2022-12-14T21:52:20.813Z,-3.75
2022-12-14T21:54:47.916Z,-3.75
2022-12-14T21:57:34.902Z,-3.72
2022-12-14T22:00:02.602Z,-3.73
2022-12-14T22:02:29.834Z,-3.76
2022-12-14T22:04:57.305Z,-3.75
2022-12-14T22:07:29.516Z,-3.74
2022-12-14T22:09:56.650Z,-3.70
2022-12-14T22:12:23.505Z,-3.68
2022-12-14T22:14:51.088Z,-3.68
2022-12-14T22:17:18.153Z,-3.70
2022-12-14T22:19:45.412Z,-3.68
2022-12-14T22:22:16.802Z,-3.69
2022-12-14T22:24:47.440Z,-3.70
2022-12-14T22:27:15.016Z,-3.67
2022-12-14T22:29:42.141Z,-3.67
2022-12-14T22:32:11.785Z,-3.63
2022-12-14T22:34:39.057Z,-3.63
2022-12-14T22:37:06.119Z,-3.61
2022-12-14T22:39:33.368Z,-3.59
2022-12-14T22:42:00.410Z,-3.57
2022-12-14T22:44:27.511Z,-3.56
2022-12-14T22:46:54.353Z,-3.54
2022-12-14T22:49:21.618Z,-3.52
2022-12-14T22:51:48.426Z,-3.51
2022-12-14T22:54:20.944Z,-3.50
2022-12-14T22:56:56.018Z,-3.50
2022-12-14T22:59:34.030Z,-3.50
2022-12-14T23:02:01.128Z,-3.51
2022-12-14T23:04:28.549Z,-3.50
2022-12-14T23:06:55.643Z,-3.49
2022-12-14T23:09:41.396Z,-3.49
2022-12-14T23:12:26.528Z,-3.49
2022-12-14T23:15:12.268Z,-3.48
2022-12-14T23:17:57.490Z,-3.44
2022-12-14T23:20:43.389Z,-3.43
2022-12-14T23:23:29.266Z,-3.44
2022-12-14T23:26:20.323Z,-3.43
2022-12-14T23:29:05.606Z,-3.44
2022-12-14T23:31:51.893Z,-3.44
2022-12-14T23:34:37.264Z,-3.45
2022-12-14T23:37:23.235Z,-3.45
2022-12-14T23:40:08.661Z,-3.44
2022-12-14T23:42:54.084Z,-3.46
2022-12-14T23:45:39.613Z,-3.46
2022-12-14T23:48:25.607Z,-3.48
2022-12-14T23:51:10.763Z,-3.50
2022-12-14T23:53:56.427Z,-3.50
2022-12-14T23:56:41.697Z,-3.48
2022-12-14T23:59:31.921Z,-3.47
